createdAt,value
2023-01-12T00:00:35.708Z,1.63
2023-01-12T00:03:03.377Z,0.90
2023-01-12T00:05:30.943Z,1.83
2023-01-12T00:07:58.608Z,1.23
2023-01-12T00:10:29.240Z,1.42
2023-01-12T00:12:57.994Z,1.10
2023-01-12T00:15:55.585Z,1.27
2023-01-12T00:18:23.265Z,1.30
2023-01-12T00:20:51.253Z,1.60
2023-01-12T00:23:19.850Z,1.67
2023-01-12T00:25:51.469Z,1.50
2023-01-12T00:28:19.064Z,1.40
2023-01-12T00:30:46.693Z,1.10
2023-01-12T00:33:14.454Z,1.50
2023-01-12T00:35:41.962Z,3.10
2023-01-12T00:38:09.597Z,1.95
2023-01-12T00:40:37.262Z,1.73
2023-01-12T00:43:23.299Z,1.60
2023-01-12T00:45:51.345Z,2.42
2023-01-12T00:48:18.983Z,1.38
2023-01-12T00:50:49.444Z,1.33
2023-01-12T00:53:17.127Z,1.10
2023-01-12T00:55:46.348Z,1.20
2023-01-12T00:58:13.953Z,1.00
2023-01-12T01:00:41.640Z,1.10
2023-01-12T01:03:09.171Z,1.08
2023-01-12T01:05:36.834Z,1.07
2023-01-12T01:08:05.053Z,0.70
2023-01-12T01:10:32.558Z,1.00
2023-01-12T01:13:00.159Z,0.80
2023-01-12T01:15:27.822Z,0.80
2023-01-12T01:17:55.406Z,0.90
2023-01-12T01:20:23.023Z,1.33
2023-01-12T01:22:53.219Z,0.80
2023-01-12T01:25:20.819Z,0.50
2023-01-12T01:27:48.417Z,0.68
2023-01-12T01:30:16.314Z,0.70
2023-01-12T01:32:43.877Z,1.15
2023-01-12T01:35:11.423Z,0.70
2023-01-12T01:37:38.999Z,1.00
2023-01-12T01:40:07.295Z,0.90
2023-01-12T01:42:34.943Z,1.03
2023-01-12T01:45:05.119Z,0.77
2023-01-12T01:47:56.019Z,0.73
2023-01-12T01:50:29.063Z,0.98
2023-01-12T01:53:02.362Z,0.90
2023-01-12T01:56:10.914Z,0.90
2023-01-12T01:58:43.459Z,0.77
2023-01-12T02:01:11.353Z,1.00
2023-01-12T02:03:40.337Z,1.00
2023-01-12T02:06:09.244Z,0.90
2023-01-12T02:08:45.437Z,0.87
2023-01-12T02:11:34.339Z,0.80
2023-01-12T02:14:20.433Z,1.23
2023-01-12T02:16:58.243Z,0.60
2023-01-12T02:19:43.897Z,0.60
2023-01-12T02:22:21.266Z,0.70
2023-01-12T02:25:00.790Z,0.75
2023-01-12T02:27:42.706Z,0.57
2023-01-12T02:30:47.579Z,0.60
2023-01-12T02:33:32.887Z,0.70
2023-01-12T02:36:23.383Z,0.60
2023-01-12T02:39:03.284Z,0.70
2023-01-12T02:42:00.853Z,0.60
2023-01-12T02:45:10.336Z,0.80
2023-01-12T02:47:47.749Z,0.52
2023-01-12T02:50:22.788Z,0.80
2023-01-12T02:53:02.234Z,0.55
2023-01-12T02:55:32.224Z,0.60
2023-01-12T02:58:01.261Z,0.60
2023-01-12T03:00:29.914Z,0.60
2023-01-12T03:02:57.484Z,0.60
2023-01-12T03:05:27.235Z,0.68
2023-01-12T03:07:59.307Z,0.90
2023-01-12T03:10:35.889Z,0.77
2023-01-12T03:13:07.805Z,0.85
2023-01-12T03:15:39.951Z,0.80
2023-01-12T03:18:15.394Z,0.77
2023-01-12T03:21:28.517Z,0.60
2023-01-12T03:24:14.899Z,0.70
2023-01-12T03:26:48.780Z,1.10
2023-01-12T03:29:19.588Z,0.77
2023-01-12T03:31:47.357Z,0.90
2023-01-12T03:34:17.994Z,0.93
2023-01-12T03:37:03.701Z,0.98
2023-01-12T03:40:25.395Z,0.93
2023-01-12T03:42:57.831Z,1.03
2023-01-12T03:45:31.682Z,1.13
2023-01-12T03:48:42.135Z,0.80
2023-01-12T03:51:23.947Z,0.98
2023-01-12T03:53:53.394Z,0.95
2023-01-12T03:56:24.330Z,0.70
2023-01-12T03:58:54.879Z,0.80
2023-01-12T04:01:22.621Z,1.30
2023-01-12T04:03:50.457Z,1.25
2023-01-12T04:06:18.078Z,1.17
2023-01-12T04:08:45.638Z,0.87
2023-01-12T04:11:31.592Z,1.00
2023-01-12T04:13:59.196Z,1.38
2023-01-12T04:16:26.834Z,1.00
2023-01-12T04:18:54.602Z,1.30
2023-01-12T04:21:41.658Z,1.43
2023-01-12T04:24:09.263Z,1.02
2023-01-12T04:26:36.920Z,1.20
2023-01-12T04:29:04.558Z,1.17
2023-01-12T04:31:32.205Z,1.20
2023-01-12T04:34:00.042Z,1.10
2023-01-12T04:36:27.660Z,1.10
2023-01-12T04:38:55.329Z,1.23
2023-01-12T04:41:22.962Z,1.00
2023-01-12T04:43:50.567Z,0.80
2023-01-12T04:46:18.147Z,0.70
2023-01-12T04:48:46.058Z,0.90
2023-01-12T04:51:14.831Z,0.90
2023-01-12T04:53:42.498Z,0.88
2023-01-12T04:56:10.308Z,1.10
2023-01-12T04:58:37.903Z,0.77
2023-01-12T05:01:14.193Z,0.85
2023-01-12T05:03:42.590Z,1.75
2023-01-12T05:06:10.446Z,1.20
2023-01-12T05:08:57.023Z,1.00
2023-01-12T05:11:28.855Z,1.10
2023-01-12T05:13:57.468Z,1.00
2023-01-12T05:16:25.856Z,0.90
2023-01-12T05:18:54.462Z,0.93
2023-01-12T05:21:23.887Z,1.23
2023-01-12T05:23:52.846Z,1.30
2023-01-12T05:26:21.066Z,0.95
2023-01-12T05:28:50.322Z,1.27
2023-01-12T05:31:19.733Z,1.30
2023-01-12T05:33:48.308Z,4.30
2023-01-12T05:36:17.431Z,4.07
2023-01-12T05:38:46.457Z,2.75
2023-01-12T05:41:14.964Z,1.88
2023-01-12T05:43:52.709Z,1.70
2023-01-12T05:46:33.441Z,1.85
2023-01-12T05:49:01.023Z,1.90
2023-01-12T05:51:31.126Z,1.73
2023-01-12T05:53:58.959Z,1.75
2023-01-12T05:56:27.997Z,2.10
2023-01-12T05:59:00.047Z,2.22
2023-01-12T06:01:29.320Z,1.90
2023-01-12T06:04:00.811Z,1.80
2023-01-12T06:06:31.599Z,1.50
2023-01-12T06:09:00.742Z,1.40
2023-01-12T06:11:47.284Z,1.10
2023-01-12T06:14:16.706Z,1.77
2023-01-12T06:16:44.858Z,1.90
2023-01-12T06:19:14.832Z,2.00
2023-01-12T06:21:44.641Z,1.52
2023-01-12T06:24:15.099Z,2.30
2023-01-12T06:26:46.516Z,2.80
2023-01-12T06:29:16.235Z,2.63
2023-01-12T06:31:46.965Z,3.22
2023-01-12T06:34:14.742Z,2.28
2023-01-12T06:36:44.752Z,2.20
2023-01-12T06:39:12.897Z,2.75
2023-01-12T06:42:01.542Z,2.00
2023-01-12T06:44:32.345Z,1.75
2023-01-12T06:47:04.430Z,3.60
2023-01-12T06:49:32.250Z,3.58
2023-01-12T06:52:00.056Z,2.67
2023-01-12T06:54:28.023Z,3.00
2023-01-12T06:56:56.021Z,6.68
2023-01-12T06:59:23.878Z,5.93
2023-01-12T07:01:53.853Z,6.68
2023-01-12T07:04:23.120Z,5.75
2023-01-12T07:06:55.436Z,5.33
2023-01-12T07:09:23.160Z,3.10
2023-01-12T07:11:51.042Z,3.05
2023-01-12T07:14:18.864Z,4.30
2023-01-12T07:16:46.797Z,4.20
2023-01-12T07:19:14.592Z,4.38
2023-01-12T07:21:45.395Z,5.73
2023-01-12T07:24:13.142Z,3.23
2023-01-12T07:26:41.087Z,3.47
2023-01-12T07:29:11.525Z,3.63
2023-01-12T07:31:42.077Z,3.70
2023-01-12T07:34:10.302Z,3.72
2023-01-12T07:36:39.934Z,4.50
2023-01-12T07:39:08.843Z,4.90
2023-01-12T07:42:14.464Z,4.90
2023-01-12T07:44:45.242Z,5.10
2023-01-12T07:47:13.116Z,6.53
2023-01-12T07:49:41.140Z,23.23
2023-01-12T07:52:12.573Z,6.23
2023-01-12T07:54:41.838Z,6.32
2023-01-12T07:57:11.053Z,5.63
2023-01-12T07:59:41.262Z,5.25
2023-01-12T08:02:16.793Z,6.28
2023-01-12T08:04:45.490Z,6.80
2023-01-12T08:07:15.243Z,5.15
2023-01-12T08:09:44.894Z,5.25
2023-01-12T08:12:12.966Z,5.70
2023-01-12T08:14:44.717Z,6.00
2023-01-12T08:17:25.189Z,5.53
2023-01-12T08:20:10.112Z,5.57
2023-01-12T08:22:44.060Z,5.63
2023-01-12T08:25:17.693Z,5.00
2023-01-12T08:27:49.893Z,5.93
2023-01-12T08:30:27.765Z,5.13
2023-01-12T08:32:58.804Z,5.50
2023-01-12T08:35:28.794Z,5.38
2023-01-12T08:37:57.471Z,5.80
2023-01-12T08:40:45.294Z,6.72
2023-01-12T08:43:35.419Z,5.87
2023-01-12T08:46:10.040Z,5.70
2023-01-12T08:48:38.586Z,6.00
2023-01-12T08:51:08.219Z,5.70
2023-01-12T08:53:38.397Z,6.32
2023-01-12T08:56:06.828Z,6.07
2023-01-12T08:58:38.184Z,6.63
2023-01-12T09:01:10.732Z,6.45
2023-01-12T09:03:41.902Z,5.57
2023-01-12T09:06:32.877Z,6.80
2023-01-12T09:09:05.668Z,5.18
2023-01-12T09:11:35.466Z,4.73
2023-01-12T09:14:06.341Z,4.38
2023-01-12T09:16:34.507Z,4.05
2023-01-12T09:19:08.170Z,4.18
2023-01-12T09:21:41.381Z,4.60
2023-01-12T09:24:12.648Z,3.97
2023-01-12T09:26:45.209Z,3.38
2023-01-12T09:29:15.693Z,4.03
2023-01-12T09:31:49.642Z,3.03
2023-01-12T09:34:18.895Z,2.97
2023-01-12T09:36:50.997Z,4.20
2023-01-12T09:39:28.920Z,2.30
2023-01-12T09:42:26.042Z,1.80
2023-01-12T09:45:12.349Z,1.60
2023-01-12T09:47:53.563Z,1.75
2023-01-12T09:50:35.947Z,1.48
2023-01-12T09:53:31.516Z,2.40
2023-01-12T09:56:28.729Z,2.67
2023-01-12T09:59:27.982Z,2.97
2023-01-12T10:01:57.313Z,2.63
2023-01-12T10:04:25.800Z,2.60
2023-01-12T10:06:58.272Z,2.17
2023-01-12T10:09:28.026Z,3.67
2023-01-12T10:12:06.671Z,1.50
2023-01-12T10:14:49.334Z,1.30
2023-01-12T10:17:50.801Z,0.93
2023-01-12T10:20:40.033Z,0.70
2023-01-12T10:23:07.846Z,2.28
2023-01-12T10:25:38.569Z,1.70
2023-01-12T10:28:26.768Z,1.03
2023-01-12T10:30:57.569Z,2.88
2023-01-12T10:33:36.816Z,0.90
2023-01-12T10:36:17.668Z,2.75
2023-01-12T10:39:05.199Z,1.77
2023-01-12T10:41:40.545Z,1.80
2023-01-12T10:44:26.554Z,1.52
2023-01-12T10:47:18.626Z,3.83
2023-01-12T10:49:46.615Z,1.40
2023-01-12T10:52:40.134Z,1.67
2023-01-12T10:55:26.189Z,2.25
2023-01-12T10:57:56.101Z,2.60
2023-01-12T11:00:29.249Z,2.13
2023-01-12T11:02:57.600Z,1.73
2023-01-12T11:05:39.752Z,1.65
2023-01-12T11:08:26.423Z,2.53
2023-01-12T11:11:23.399Z,2.83
2023-01-12T11:14:03.601Z,1.20
2023-01-12T11:16:48.496Z,1.50
2023-01-12T11:19:29.967Z,2.88
2023-01-12T11:22:06.458Z,1.88
2023-01-12T11:24:43.032Z,1.67
2023-01-12T11:27:16.755Z,1.23
2023-01-12T11:30:00.701Z,1.80
2023-01-12T11:32:55.173Z,1.77
2023-01-12T11:35:33.093Z,1.40
2023-01-12T11:38:13.970Z,1.70
2023-01-12T11:40:44.581Z,2.15
2023-01-12T11:43:55.932Z,1.80
2023-01-12T11:46:30.249Z,0.97
2023-01-12T11:49:05.929Z,2.05
2023-01-12T11:51:36.352Z,1.40
2023-01-12T11:54:07.688Z,1.67
2023-01-12T11:56:54.222Z,1.52
2023-01-12T11:59:41.649Z,1.10
2023-01-12T12:02:44.299Z,0.80
2023-01-12T12:05:30.254Z,0.88
2023-01-12T12:08:28.999Z,0.70
2023-01-12T12:10:59.304Z,1.00
2023-01-12T12:13:33.552Z,1.00
2023-01-12T12:16:13.332Z,1.00
2023-01-12T12:18:54.445Z,1.83
2023-01-12T12:21:22.041Z,1.63
2023-01-12T12:24:01.842Z,1.00
2023-01-12T12:26:39.630Z,1.13
2023-01-12T12:29:39.375Z,2.88
2023-01-12T12:32:28.152Z,1.40
2023-01-12T12:35:13.926Z,1.20
2023-01-12T12:38:08.972Z,0.90
2023-01-12T12:41:24.937Z,1.10
2023-01-12T12:44:39.132Z,1.45
2023-01-12T12:47:32.158Z,1.33
2023-01-12T12:50:00.980Z,1.40
2023-01-12T12:52:36.226Z,1.03
2023-01-12T12:55:08.110Z,1.00
2023-01-12T12:57:59.601Z,1.30
2023-01-12T13:00:42.781Z,0.98
2023-01-12T13:03:10.809Z,1.92
2023-01-12T13:05:47.896Z,1.10
2023-01-12T13:08:26.893Z,1.03
2023-01-12T13:10:57.956Z,0.75
2023-01-12T13:13:33.862Z,1.80
2023-01-12T13:16:16.554Z,1.77
2023-01-12T13:19:07.186Z,1.30
2023-01-12T13:21:43.085Z,1.00
2023-01-12T13:24:13.889Z,1.03
2023-01-12T13:26:47.267Z,1.00
2023-01-12T13:29:23.866Z,0.80
2023-01-12T13:32:11.146Z,0.63
2023-01-12T13:34:44.405Z,1.30
2023-01-12T13:37:44.856Z,2.40
2023-01-12T13:40:18.725Z,3.50
2023-01-12T13:43:05.779Z,1.17
2023-01-12T13:46:17.274Z,1.50
2023-01-12T13:48:49.147Z,1.48
2023-01-12T13:51:34.687Z,1.02
2023-01-12T13:54:15.475Z,1.40
2023-01-12T13:56:55.364Z,1.00
2023-01-12T13:59:25.060Z,1.45
2023-01-12T14:01:56.290Z,1.10
2023-01-12T14:04:45.178Z,0.80
2023-01-12T14:07:28.611Z,1.73
2023-01-12T14:10:09.691Z,1.40
2023-01-12T14:12:50.220Z,0.83
2023-01-12T14:15:55.001Z,1.17
2023-01-12T14:18:25.480Z,1.00
2023-01-12T14:20:55.292Z,0.90
2023-01-12T14:23:27.251Z,1.52
2023-01-12T14:26:12.868Z,1.60
2023-01-12T14:28:49.027Z,1.50
2023-01-12T14:31:32.992Z,1.50
2023-01-12T14:34:04.044Z,1.52
2023-01-12T14:36:44.808Z,1.70
2023-01-12T14:39:20.875Z,1.80
2023-01-12T14:42:11.155Z,1.50
2023-01-12T14:45:14.658Z,2.20
2023-01-12T14:47:42.535Z,1.67
2023-01-12T14:50:13.307Z,1.95
2023-01-12T14:52:43.896Z,1.13
2023-01-12T14:55:37.868Z,1.50
2023-01-12T14:58:06.448Z,1.60
2023-01-12T15:00:36.812Z,1.38
2023-01-12T15:03:17.000Z,1.50
2023-01-12T15:05:44.780Z,1.02
2023-01-12T15:08:12.203Z,0.90
2023-01-12T15:10:44.922Z,1.35
2023-01-12T15:13:35.884Z,1.50
2023-01-12T15:16:24.102Z,1.00
2023-01-12T15:19:12.694Z,1.17
2023-01-12T15:22:01.720Z,1.50
2023-01-12T15:24:49.703Z,2.30
2023-01-12T15:27:20.747Z,1.88
2023-01-12T15:29:48.629Z,3.45
2023-01-12T15:32:52.395Z,4.47
2023-01-12T15:35:27.781Z,1.27
2023-01-12T15:37:57.124Z,1.80
2023-01-12T15:40:26.524Z,3.40
2023-01-12T15:42:54.711Z,2.08
2023-01-12T15:45:37.067Z,2.00
2023-01-12T15:48:05.926Z,3.00
2023-01-12T15:50:36.724Z,2.88
2023-01-12T15:53:27.797Z,2.07
2023-01-12T15:55:55.387Z,2.05
2023-01-12T15:58:24.041Z,1.77
2023-01-12T16:00:52.338Z,2.13
2023-01-12T16:03:54.459Z,2.33
2023-01-12T16:06:09.425Z,3.10
2023-01-12T16:08:37.570Z,2.03
2023-01-12T16:11:14.777Z,2.25
2023-01-12T16:13:44.003Z,3.17
2023-01-12T16:16:16.574Z,2.25
2023-01-12T16:18:44.885Z,2.43
2023-01-12T16:21:17.184Z,1.77
2023-01-12T16:23:45.079Z,3.08
2023-01-12T16:26:12.888Z,1.80
2023-01-12T16:28:40.761Z,2.30
2023-01-12T16:31:12.971Z,2.10
2023-01-12T16:33:42.589Z,2.90
2023-01-12T16:36:11.630Z,2.20
2023-01-12T16:38:39.332Z,1.70
2023-01-12T16:41:15.990Z,2.83
2023-01-12T16:43:43.727Z,2.33
2023-01-12T16:46:12.992Z,3.87
2023-01-12T16:48:55.958Z,2.60
2023-01-12T16:51:24.759Z,2.22
2023-01-12T16:53:57.719Z,2.08
2023-01-12T16:56:25.828Z,2.45
2023-01-12T16:58:56.568Z,3.45
2023-01-12T17:01:26.373Z,2.30
2023-01-12T17:03:58.105Z,3.03
2023-01-12T17:06:28.300Z,2.60
2023-01-12T17:08:56.878Z,2.60
2023-01-12T17:11:30.565Z,2.25
2023-01-12T17:14:18.848Z,2.50
2023-01-12T17:16:49.711Z,2.97
2023-01-12T17:19:18.869Z,4.20
2023-01-12T17:21:58.540Z,2.67
2023-01-12T17:24:36.535Z,2.75
2023-01-12T17:27:04.300Z,3.87
2023-01-12T17:29:34.902Z,6.37
2023-01-12T17:32:07.253Z,4.95
2023-01-12T17:34:39.091Z,3.97
2023-01-12T17:37:12.977Z,2.90
2023-01-12T17:39:49.643Z,4.10
2023-01-12T17:42:36.711Z,3.83
2023-01-12T17:45:05.422Z,3.83
2023-01-12T17:47:40.783Z,4.40
2023-01-12T17:50:16.339Z,4.80
2023-01-12T17:52:47.356Z,4.45
2023-01-12T17:55:26.506Z,5.68
2023-01-12T17:58:02.045Z,4.73
2023-01-12T18:00:37.906Z,4.90
2023-01-12T18:03:05.860Z,4.35
2023-01-12T18:05:35.433Z,5.35
2023-01-12T18:08:14.821Z,3.95
2023-01-12T18:10:58.584Z,4.10
2023-01-12T18:13:30.211Z,8.60
2023-01-12T18:16:01.522Z,4.82
2023-01-12T18:18:32.902Z,4.57
2023-01-12T18:21:09.062Z,4.80
2023-01-12T18:23:40.829Z,3.95
2023-01-12T18:26:13.631Z,4.97
2023-01-12T18:28:45.074Z,4.10
2023-01-12T18:31:18.055Z,4.35
2023-01-12T18:33:51.811Z,4.47
2023-01-12T18:36:24.350Z,4.50
2023-01-12T18:38:54.287Z,3.70
2023-01-12T18:41:41.897Z,4.50
2023-01-12T18:44:10.674Z,3.72
2023-01-12T18:47:04.159Z,4.15
2023-01-12T18:49:34.363Z,3.80
2023-01-12T18:52:21.490Z,4.18
2023-01-12T18:54:51.776Z,4.50
2023-01-12T18:57:24.733Z,5.07
2023-01-12T18:59:56.366Z,5.38
2023-01-12T19:02:24.344Z,4.93
2023-01-12T19:05:12.609Z,4.65
2023-01-12T19:08:05.127Z,5.00
2023-01-12T19:10:36.189Z,5.10
2023-01-12T19:13:31.590Z,3.88
2023-01-12T19:16:19.641Z,5.90
2023-01-12T19:18:48.174Z,4.07
2023-01-12T19:21:34.738Z,4.80
2023-01-12T19:24:20.739Z,4.77
2023-01-12T19:27:06.798Z,3.72
2023-01-12T19:29:35.653Z,4.30
2023-01-12T19:32:03.416Z,4.32
2023-01-12T19:34:31.153Z,4.82
2023-01-12T19:36:58.918Z,4.20
2023-01-12T19:39:44.116Z,5.20
2023-01-12T19:42:32.335Z,4.72
2023-01-12T19:44:59.973Z,5.05
2023-01-12T19:47:27.627Z,4.80
2023-01-12T19:49:55.410Z,4.67
2023-01-12T19:52:23.390Z,4.05
2023-01-12T19:54:51.253Z,4.28
2023-01-12T19:57:21.704Z,3.75
2023-01-12T19:59:49.369Z,4.93
2023-01-12T20:02:17.212Z,5.90
2023-01-12T20:04:45.777Z,4.78
2023-01-12T20:07:14.950Z,5.07
2023-01-12T20:09:42.556Z,4.18
2023-01-12T20:12:10.175Z,4.97
2023-01-12T20:14:37.880Z,4.33
2023-01-12T20:17:06.165Z,4.65
2023-01-12T20:19:38.135Z,4.40
2023-01-12T20:22:05.832Z,4.30
2023-01-12T20:24:33.708Z,4.22
2023-01-12T20:27:03.781Z,3.70
2023-01-12T20:29:31.350Z,4.35
2023-01-12T20:32:02.651Z,4.50
2023-01-12T20:34:32.495Z,4.55
2023-01-12T20:37:01.223Z,5.13
2023-01-12T20:39:29.663Z,5.20
2023-01-12T20:41:57.443Z,4.65
2023-01-12T20:44:25.069Z,3.70
2023-01-12T20:46:53.500Z,3.67
2023-01-12T20:49:21.177Z,2.95
2023-01-12T20:51:52.394Z,2.70
2023-01-12T20:54:20.097Z,2.60
2023-01-12T20:56:47.878Z,2.50
2023-01-12T20:59:19.430Z,2.80
2023-01-12T21:01:47.227Z,2.30
2023-01-12T21:04:19.770Z,2.77
2023-01-12T21:06:48.567Z,3.58
2023-01-12T21:09:16.142Z,2.55
2023-01-12T21:11:47.088Z,2.50
2023-01-12T21:14:14.807Z,2.33
2023-01-12T21:16:42.559Z,1.67
2023-01-12T21:19:10.168Z,1.63
2023-01-12T21:21:43.408Z,2.00
2023-01-12T21:24:12.135Z,2.10
2023-01-12T21:26:42.399Z,2.83
2023-01-12T21:29:12.405Z,2.37
2023-01-12T21:31:41.332Z,1.55
2023-01-12T21:34:09.119Z,1.67
2023-01-12T21:36:36.793Z,1.60
2023-01-12T21:39:04.578Z,1.92
2023-01-12T21:41:52.300Z,1.77
2023-01-12T21:44:19.963Z,1.50
2023-01-12T21:46:50.825Z,2.30
2023-01-12T21:49:21.521Z,1.98
2023-01-12T21:51:55.682Z,1.70
2023-01-12T21:54:23.498Z,1.53
2023-01-12T21:56:54.050Z,2.10
2023-01-12T21:59:21.775Z,1.77
2023-01-12T22:01:51.944Z,1.92
2023-01-12T22:04:19.861Z,2.00
2023-01-12T22:06:50.751Z,1.40
2023-01-12T22:09:23.095Z,2.22
2023-01-12T22:11:56.056Z,2.85
2023-01-12T22:14:28.667Z,2.92
2023-01-12T22:16:56.465Z,2.10
2023-01-12T22:19:29.554Z,1.90
2023-01-12T22:22:08.528Z,2.08
2023-01-12T22:24:45.160Z,1.30
2023-01-12T22:27:30.800Z,2.13
2023-01-12T22:30:21.558Z,1.70
2023-01-12T22:32:55.775Z,1.77
2023-01-12T22:35:26.567Z,2.00
2023-01-12T22:37:57.462Z,2.00
2023-01-12T22:40:32.045Z,1.67
2023-01-12T22:43:43.175Z,1.77
2023-01-12T22:46:27.782Z,1.87
2023-01-12T22:48:59.744Z,2.15
2023-01-12T22:51:38.278Z,2.10
2023-01-12T22:54:08.379Z,2.00
2023-01-12T22:56:45.095Z,2.38
2023-01-12T22:59:21.420Z,2.23
2023-01-12T23:02:00.464Z,1.70
2023-01-12T23:04:28.283Z,2.30
2023-01-12T23:07:01.665Z,2.03
2023-01-12T23:09:31.607Z,2.03
2023-01-12T23:11:59.304Z,1.83
2023-01-12T23:14:29.340Z,2.05
2023-01-12T23:16:58.190Z,2.75
2023-01-12T23:19:28.490Z,2.08
2023-01-12T23:22:01.857Z,2.08
2023-01-12T23:24:29.604Z,1.97
2023-01-12T23:27:00.189Z,1.92
2023-01-12T23:29:30.494Z,2.00
2023-01-12T23:32:00.843Z,1.80
2023-01-12T23:34:32.547Z,2.20
2023-01-12T23:37:00.195Z,1.80
2023-01-12T23:39:27.751Z,2.25
2023-01-12T23:41:55.332Z,2.10
2023-01-12T23:44:24.886Z,2.08
2023-01-12T23:46:52.634Z,3.33
2023-01-12T23:49:23.298Z,2.30
2023-01-12T23:51:53.694Z,1.95
2023-01-12T23:54:29.302Z,2.33
2023-01-12T23:57:00.887Z,1.92
2023-01-12T23:59:28.787Z,1.80
